createdAt,value
2023-01-25T00:03:38.955Z,15.27
2023-01-25T00:09:40.730Z,15.80
2023-01-25T00:15:42.503Z,15.55
2023-01-25T00:21:44.259Z,13.73
2023-01-25T00:27:46.064Z,15.05
2023-01-25T00:34:18.182Z,12.43
2023-01-25T00:40:19.964Z,17.08
2023-01-25T00:46:22.633Z,16.10
2023-01-25T00:52:24.558Z,15.18
2023-01-25T00:58:26.874Z,14.10
2023-01-25T01:04:29.986Z,14.02
2023-01-25T01:10:31.912Z,14.20
2023-01-25T01:16:33.971Z,15.73
2023-01-25T01:22:35.903Z,14.55
2023-01-25T01:28:39.608Z,12.98
2023-01-25T01:34:41.647Z,14.30
2023-01-25T01:40:47.971Z,13.20
2023-01-25T01:46:58.321Z,10.33
2023-01-25T01:53:03.368Z,13.82
2023-01-25T01:59:06.415Z,13.38
2023-01-25T02:05:17.596Z,15.07
2023-01-25T02:11:21.257Z,13.93
2023-01-25T02:17:33.696Z,12.52
2023-01-25T02:23:41.126Z,12.93
2023-01-25T02:29:45.091Z,13.00
2023-01-25T02:35:52.940Z,15.65
2023-01-25T02:41:55.064Z,15.13
2023-01-25T02:48:00.337Z,19.15
2023-01-25T02:54:08.751Z,24.80
2023-01-25T03:00:11.681Z,25.30
2023-01-25T03:06:13.920Z,30.13
2023-01-25T03:12:17.824Z,34.75
2023-01-25T03:18:20.639Z,36.58
2023-01-25T03:24:22.676Z,41.90
2023-01-25T03:30:24.695Z,43.53
2023-01-25T03:36:26.682Z,47.35
2023-01-25T03:42:28.622Z,42.42
2023-01-25T03:48:32.807Z,51.42
2023-01-25T03:54:34.927Z,43.95
2023-01-25T04:00:37.433Z,47.78
2023-01-25T04:06:52.816Z,50.78
2023-01-25T04:12:59.434Z,47.08
2023-01-25T04:19:01.443Z,50.25
2023-01-25T04:25:05.462Z,43.65
2023-01-25T04:31:08.205Z,49.05
2023-01-25T04:37:17.637Z,51.42
2023-01-25T04:43:32.722Z,45.03
2023-01-25T04:49:40.921Z,43.55
2023-01-25T04:55:47.806Z,42.20
2023-01-25T05:01:50.412Z,42.47
2023-01-25T05:07:52.277Z,45.38
2023-01-25T05:13:54.883Z,45.33
2023-01-25T05:20:04.695Z,43.17
2023-01-25T05:26:26.815Z,44.25
2023-01-25T05:32:28.801Z,41.67
2023-01-25T05:38:31.168Z,41.97
2023-01-25T05:44:34.032Z,39.42
2023-01-25T05:50:35.964Z,41.97
2023-01-25T05:56:50.716Z,39.67
2023-01-25T06:02:53.372Z,42.80
2023-01-25T06:08:59.317Z,43.10
2023-01-25T06:15:01.197Z,42.40
2023-01-25T06:21:04.792Z,41.35
2023-01-25T06:27:12.722Z,50.88
2023-01-25T06:33:14.592Z,45.67
2023-01-25T06:39:16.424Z,36.70
2023-01-25T06:45:18.624Z,39.50
2023-01-25T06:51:20.502Z,42.03
2023-01-25T06:57:22.291Z,39.67
2023-01-25T07:03:24.076Z,43.13
2023-01-25T07:09:25.824Z,45.95
2023-01-25T07:15:28.649Z,42.88
2023-01-25T07:21:30.417Z,42.20
2023-01-25T07:27:35.281Z,40.53
2023-01-25T07:33:37.079Z,42.33
2023-01-25T07:39:40.762Z,39.95
2023-01-25T07:45:48.597Z,41.13
2023-01-25T07:51:50.345Z,39.35
2023-01-25T07:57:55.670Z,39.95
2023-01-25T08:03:57.578Z,37.67
2023-01-25T08:09:59.389Z,36.72
2023-01-25T08:16:01.196Z,37.17
2023-01-25T08:22:02.999Z,34.72
2023-01-25T08:28:05.193Z,38.47
2023-01-25T08:34:07.596Z,35.53
2023-01-25T08:40:10.592Z,36.53
2023-01-25T08:46:15.276Z,39.38
2023-01-25T08:52:17.132Z,37.25
2023-01-25T08:58:21.733Z,37.17
2023-01-25T09:04:28.267Z,40.00
2023-01-25T09:10:30.150Z,49.60
2023-01-25T09:16:32.161Z,49.78
2023-01-25T09:22:33.946Z,48.55
2023-01-25T09:28:35.740Z,41.70
2023-01-25T09:34:37.502Z,44.78
2023-01-25T09:40:41.394Z,46.22
2023-01-25T09:46:44.070Z,48.05
2023-01-25T09:52:59.692Z,48.85
2023-01-25T09:59:11.580Z,48.40
2023-01-25T10:05:22.677Z,41.90
2023-01-25T10:11:32.579Z,46.38
2023-01-25T10:17:38.531Z,38.03
2023-01-25T10:24:05.788Z,39.10
2023-01-25T10:30:26.780Z,35.30
2023-01-25T10:36:31.519Z,32.50
2023-01-25T10:43:05.504Z,32.30
2023-01-25T10:49:48.395Z,35.70
2023-01-25T10:56:04.508Z,32.20
2023-01-25T11:02:35.765Z,35.08
2023-01-25T11:08:39.790Z,39.55
2023-01-25T11:14:41.562Z,36.17
2023-01-25T11:20:43.352Z,35.13
2023-01-25T11:26:45.966Z,28.40
2023-01-25T11:32:47.789Z,28.95
2023-01-25T11:39:23.445Z,34.30
2023-01-25T11:45:46.212Z,22.60
2023-01-25T11:51:58.670Z,19.55
2023-01-25T11:58:30.906Z,19.00
2023-01-25T12:04:45.560Z,17.70
2023-01-25T12:11:08.819Z,19.40
2023-01-25T12:17:48.341Z,22.23
2023-01-25T12:23:59.066Z,22.52
2023-01-25T12:30:13.034Z,26.42
2023-01-25T12:36:35.597Z,23.50
2023-01-25T12:42:53.880Z,25.83
2023-01-25T12:49:04.611Z,24.00
2023-01-25T12:55:13.572Z,29.02
2023-01-25T13:01:49.301Z,30.73
2023-01-25T13:08:30.772Z,29.85
2023-01-25T13:14:41.284Z,32.15
2023-01-25T13:20:43.036Z,28.23
2023-01-25T13:26:54.122Z,27.30
2023-01-25T13:32:59.692Z,29.95
2023-01-25T13:39:03.643Z,30.98
2023-01-25T13:45:18.810Z,30.60
2023-01-25T13:51:21.935Z,31.70
2023-01-25T13:57:26.972Z,34.80
2023-01-25T14:03:36.076Z,31.58
2023-01-25T14:09:40.603Z,31.73
2023-01-25T14:15:53.351Z,25.10
2023-01-25T14:22:28.117Z,27.30
2023-01-25T14:28:30.824Z,28.40
2023-01-25T14:34:32.624Z,28.90
2023-01-25T14:40:34.474Z,31.52
2023-01-25T14:46:38.066Z,30.08
2023-01-25T14:52:40.931Z,32.17
2023-01-25T14:58:43.181Z,32.13
2023-01-25T15:05:20.053Z,29.95
2023-01-25T15:11:49.767Z,36.42
2023-01-25T15:17:52.199Z,35.33
2023-01-25T15:23:55.715Z,33.20
2023-01-25T15:29:57.695Z,28.63
2023-01-25T15:35:59.664Z,29.85
2023-01-25T15:42:01.529Z,28.58
2023-01-25T15:48:03.312Z,32.47
2023-01-25T15:54:07.315Z,31.27
2023-01-25T16:00:20.624Z,33.22
2023-01-25T16:06:53.244Z,34.75
2023-01-25T16:12:55.075Z,33.25
2023-01-25T16:18:56.923Z,37.25
2023-01-25T16:24:58.769Z,39.20
2023-01-25T16:31:00.679Z,36.50
2023-01-25T16:37:02.569Z,49.08
2023-01-25T16:43:04.586Z,42.72
2023-01-25T16:49:09.145Z,45.03
2023-01-25T16:55:12.748Z,51.55
2023-01-25T17:01:16.101Z,44.78
2023-01-25T17:07:17.952Z,54.22
2023-01-25T17:13:19.777Z,55.38
2023-01-25T17:19:21.646Z,51.83
2023-01-25T17:25:24.047Z,57.35
2023-01-25T17:31:32.274Z,56.95
2023-01-25T17:37:34.142Z,73.55
2023-01-25T17:43:36.790Z,66.50
2023-01-25T17:49:38.609Z,73.85
2023-01-25T17:55:40.364Z,73.55
2023-01-25T18:01:44.880Z,65.13
2023-01-25T18:07:46.907Z,61.78
2023-01-25T18:13:56.973Z,65.80
2023-01-25T18:19:59.120Z,62.60
2023-01-25T18:26:01.100Z,57.80
2023-01-25T18:32:03.538Z,96.20
2023-01-25T18:38:05.409Z,64.47
2023-01-25T18:44:07.295Z,70.53
2023-01-25T18:50:11.426Z,61.47
2023-01-25T18:56:19.070Z,61.38
2023-01-25T19:02:22.914Z,48.53
2023-01-25T19:08:25.801Z,48.53
2023-01-25T19:14:27.649Z,48.55
2023-01-25T19:20:30.239Z,44.83
2023-01-25T19:26:32.039Z,46.67
2023-01-25T19:32:33.848Z,53.45
2023-01-25T19:38:40.135Z,47.40
2023-01-25T19:44:41.920Z,46.90
2023-01-25T19:50:43.709Z,44.08
2023-01-25T19:56:48.068Z,38.97
2023-01-25T20:02:49.947Z,39.20
2023-01-25T20:08:52.275Z,44.92
2023-01-25T20:14:54.328Z,42.35
2023-01-25T20:21:01.797Z,41.72
2023-01-25T20:27:04.580Z,43.97
2023-01-25T20:33:16.547Z,49.85
2023-01-25T20:39:30.657Z,43.45
2023-01-25T20:45:32.539Z,52.88
2023-01-25T20:51:35.205Z,40.85
2023-01-25T20:57:39.208Z,45.65
2023-01-25T21:03:43.150Z,42.97
2023-01-25T21:09:44.987Z,42.90
2023-01-25T21:16:12.703Z,41.10
2023-01-25T21:22:14.605Z,40.17
2023-01-25T21:28:16.392Z,43.33
2023-01-25T21:34:18.478Z,35.47
2023-01-25T21:40:20.560Z,36.20
2023-01-25T21:46:26.986Z,41.83
2023-01-25T21:52:28.828Z,43.40
2023-01-25T21:58:30.728Z,41.92
2023-01-25T22:04:36.167Z,40.35
2023-01-25T22:10:38.043Z,41.40
2023-01-25T22:16:39.864Z,35.75
2023-01-25T22:22:41.720Z,38.28
2023-01-25T22:28:45.903Z,38.22
2023-01-25T22:34:47.737Z,34.13
2023-01-25T22:41:10.360Z,28.10
2023-01-25T22:47:12.200Z,28.40
2023-01-25T22:53:14.218Z,24.70
2023-01-25T22:59:18.858Z,25.20
2023-01-25T23:05:20.906Z,22.83
2023-01-25T23:11:24.291Z,26.38
2023-01-25T23:17:45.393Z,19.25
2023-01-25T23:23:47.639Z,24.35
2023-01-25T23:29:49.965Z,16.00
2023-01-25T23:35:51.731Z,17.02
2023-01-25T23:41:53.475Z,19.05
2023-01-25T23:47:55.248Z,16.15
2023-01-25T23:53:58.358Z,15.40
